createdAt,value
2023-02-16T00:01:59.834Z,21.35
2023-02-16T00:04:28.874Z,22.30
2023-02-16T00:06:56.414Z,21.90
2023-02-16T00:09:24.249Z,23.23
2023-02-16T00:12:11.253Z,22.50
2023-02-16T00:14:39.568Z,22.10
2023-02-16T00:17:06.613Z,23.17
2023-02-16T00:19:38.937Z,21.73
2023-02-16T00:22:07.120Z,23.75
2023-02-16T00:24:34.736Z,23.60
2023-02-16T00:27:02.016Z,22.77
2023-02-16T00:29:33.784Z,22.48
2023-02-16T00:32:01.954Z,22.80
2023-02-16T00:34:36.794Z,23.27
2023-02-16T00:37:08.492Z,22.63
2023-02-16T00:39:35.898Z,23.10
2023-02-16T00:42:12.750Z,23.77
2023-02-16T00:44:48.366Z,21.60
2023-02-16T00:47:37.378Z,23.73
2023-02-16T00:50:16.132Z,23.27
2023-02-16T00:52:43.149Z,23.40
2023-02-16T00:55:12.323Z,22.42
2023-02-16T00:58:12.461Z,20.77
2023-02-16T01:00:46.313Z,22.73
2023-02-16T01:03:23.976Z,24.10
2023-02-16T01:06:11.009Z,23.80
2023-02-16T01:08:58.496Z,22.90
2023-02-16T01:11:25.585Z,23.15
2023-02-16T01:13:53.656Z,21.98
2023-02-16T01:16:26.068Z,24.30
2023-02-16T01:18:52.948Z,23.20
2023-02-16T01:21:20.006Z,22.25
2023-02-16T01:23:46.358Z,23.45
2023-02-16T01:26:17.092Z,23.15
2023-02-16T01:28:44.419Z,23.42
2023-02-16T01:31:12.342Z,23.58
2023-02-16T01:33:39.057Z,23.80
2023-02-16T01:36:06.789Z,24.85
2023-02-16T01:38:33.142Z,22.58
2023-02-16T01:41:24.657Z,23.73
2023-02-16T01:43:58.410Z,23.85
2023-02-16T01:46:32.976Z,23.20
2023-02-16T01:48:59.996Z,23.92
2023-02-16T01:51:36.394Z,24.48
2023-02-16T01:54:17.572Z,22.17
2023-02-16T01:56:50.805Z,22.73
2023-02-16T01:59:44.206Z,22.70
2023-02-16T02:02:23.108Z,22.27
2023-02-16T02:05:17.030Z,23.05
2023-02-16T02:07:52.828Z,24.40
2023-02-16T02:10:22.190Z,24.08
2023-02-16T02:13:13.466Z,23.25
2023-02-16T02:15:40.186Z,23.70
2023-02-16T02:18:09.035Z,23.77
2023-02-16T02:21:24.771Z,23.70
2023-02-16T02:24:20.339Z,23.00
2023-02-16T02:27:01.437Z,23.45
2023-02-16T02:29:58.310Z,23.88
2023-02-16T02:32:55.794Z,23.98
2023-02-16T02:35:51.826Z,24.30
2023-02-16T02:38:30.004Z,24.38
2023-02-16T02:41:08.467Z,22.75
2023-02-16T02:46:12.993Z,19.75
2023-02-16T02:48:39.698Z,21.55
2023-02-16T02:51:27.793Z,22.70
2023-02-16T02:54:23.720Z,22.98
2023-02-16T02:57:25.967Z,23.15
2023-02-16T03:00:20.602Z,22.80
2023-02-16T03:02:50.840Z,21.95
2023-02-16T03:05:18.885Z,23.02
2023-02-16T03:07:48.096Z,23.13
2023-02-16T03:10:45.162Z,21.05
2023-02-16T03:13:14.979Z,22.15
2023-02-16T03:15:43.648Z,23.50
2023-02-16T03:18:31.456Z,21.02
2023-02-16T03:21:17.570Z,22.90
2023-02-16T03:24:03.825Z,21.85
2023-02-16T03:26:51.094Z,22.15
2023-02-16T03:29:22.635Z,23.08
2023-02-16T03:31:51.772Z,22.67
2023-02-16T03:34:19.441Z,23.63
2023-02-16T03:36:50.444Z,22.80
2023-02-16T03:39:18.895Z,22.70
2023-02-16T03:44:17.553Z,23.98
2023-02-16T03:46:44.961Z,20.60
2023-02-16T03:49:12.064Z,20.80
2023-02-16T03:51:38.637Z,22.50
2023-02-16T03:54:04.952Z,23.90
2023-02-16T03:56:31.361Z,24.13
2023-02-16T03:58:57.920Z,23.98
2023-02-16T04:01:24.405Z,24.27
2023-02-16T04:03:50.801Z,23.02
2023-02-16T04:06:17.336Z,24.52
2023-02-16T04:08:43.828Z,22.35
2023-02-16T04:11:28.637Z,22.52
2023-02-16T04:13:54.963Z,22.05
2023-02-16T04:16:21.304Z,23.92
2023-02-16T04:18:47.723Z,24.25
2023-02-16T04:21:14.313Z,23.40
2023-02-16T04:23:40.850Z,24.15
2023-02-16T04:26:07.219Z,24.48
2023-02-16T04:28:33.642Z,24.80
2023-02-16T04:31:00.138Z,24.17
2023-02-16T04:33:26.773Z,25.13
2023-02-16T04:35:53.369Z,24.27
2023-02-16T04:38:19.726Z,23.58
2023-02-16T04:40:46.340Z,23.90
2023-02-16T04:43:13.977Z,22.42
2023-02-16T04:45:40.265Z,25.20
2023-02-16T04:48:08.446Z,24.02
2023-02-16T04:50:36.845Z,25.58
2023-02-16T04:53:03.352Z,25.90
2023-02-16T04:55:31.012Z,24.48
2023-02-16T04:57:57.671Z,26.13
2023-02-16T05:00:24.106Z,25.27
2023-02-16T05:02:55.884Z,26.40
2023-02-16T05:05:22.521Z,27.42
2023-02-16T05:07:49.143Z,24.85
2023-02-16T05:10:15.579Z,25.70
2023-02-16T05:13:00.332Z,24.58
2023-02-16T05:15:27.133Z,22.65
2023-02-16T05:17:54.962Z,24.10
2023-02-16T05:20:41.345Z,24.42
2023-02-16T05:23:07.954Z,22.25
2023-02-16T05:25:34.338Z,23.50
2023-02-16T05:28:01.065Z,23.67
2023-02-16T05:30:27.615Z,23.58
2023-02-16T05:32:59.275Z,24.05
2023-02-16T05:35:25.654Z,24.55
2023-02-16T05:37:53.350Z,24.40
2023-02-16T05:40:20.156Z,26.95
2023-02-16T05:42:47.323Z,24.67
2023-02-16T05:45:14.133Z,25.15
2023-02-16T05:47:40.781Z,23.40
2023-02-16T05:50:07.839Z,24.33
2023-02-16T05:52:43.287Z,23.50
2023-02-16T05:55:11.318Z,23.73
2023-02-16T05:57:37.971Z,24.52
2023-02-16T06:00:05.888Z,23.88
2023-02-16T06:02:32.225Z,26.92
2023-02-16T06:05:01.896Z,29.15
2023-02-16T06:07:34.039Z,28.55
2023-02-16T06:10:00.967Z,27.88
2023-02-16T06:12:31.972Z,27.67
2023-02-16T06:14:58.420Z,25.23
2023-02-16T06:17:25.608Z,26.38
2023-02-16T06:20:02.121Z,25.67
2023-02-16T06:22:34.510Z,24.38
2023-02-16T06:25:02.458Z,24.98
2023-02-16T06:27:31.293Z,23.60
2023-02-16T06:29:59.406Z,24.45
2023-02-16T06:32:28.438Z,25.98
2023-02-16T06:35:01.105Z,25.02
2023-02-16T06:37:27.875Z,24.02
2023-02-16T06:39:54.689Z,24.48
2023-02-16T06:42:21.304Z,25.38
2023-02-16T06:44:48.083Z,25.10
2023-02-16T06:47:14.786Z,25.75
2023-02-16T06:49:41.266Z,25.15
2023-02-16T06:52:07.850Z,24.55
2023-02-16T06:54:34.259Z,25.05
2023-02-16T06:57:00.823Z,24.90
2023-02-16T06:59:27.346Z,25.55
2023-02-16T07:01:58.781Z,26.45
2023-02-16T07:04:29.144Z,25.98
2023-02-16T07:06:55.774Z,26.15
2023-02-16T07:09:22.142Z,26.95
2023-02-16T07:11:53.197Z,25.70
2023-02-16T07:14:22.070Z,26.77
2023-02-16T07:16:48.582Z,28.00
2023-02-16T07:19:15.050Z,26.85
2023-02-16T07:21:41.519Z,24.98
2023-02-16T07:24:08.931Z,27.48
2023-02-16T07:26:38.670Z,25.58
2023-02-16T07:29:05.644Z,25.50
2023-02-16T07:31:33.899Z,26.45
2023-02-16T07:34:01.071Z,26.90
2023-02-16T07:36:27.843Z,27.27
2023-02-16T07:38:55.024Z,26.33
2023-02-16T07:41:22.379Z,26.95
2023-02-16T07:43:48.901Z,24.88
2023-02-16T07:46:15.202Z,26.35
2023-02-16T07:48:43.982Z,26.90
2023-02-16T07:51:32.979Z,25.92
2023-02-16T07:54:00.692Z,26.02
2023-02-16T07:56:30.341Z,24.70
2023-02-16T07:58:58.549Z,23.55
2023-02-16T08:01:25.518Z,22.92
2023-02-16T08:03:58.064Z,24.90
2023-02-16T08:06:24.510Z,26.13
2023-02-16T08:08:50.956Z,25.13
2023-02-16T08:11:22.880Z,27.88
2023-02-16T08:13:49.873Z,27.98
2023-02-16T08:16:24.814Z,30.42
2023-02-16T08:18:53.072Z,28.98
2023-02-16T08:21:23.733Z,26.92
2023-02-16T08:24:01.884Z,26.20
2023-02-16T08:26:33.197Z,24.55
2023-02-16T08:29:03.653Z,24.88
2023-02-16T08:31:31.882Z,23.50
2023-02-16T08:34:01.403Z,24.95
2023-02-16T08:36:35.038Z,24.88
2023-02-16T08:39:04.170Z,24.98
2023-02-16T08:41:36.402Z,25.13
2023-02-16T08:44:04.398Z,24.55
2023-02-16T08:46:35.603Z,24.08
2023-02-16T08:49:05.430Z,24.00
2023-02-16T08:51:35.092Z,23.02
2023-02-16T08:54:05.844Z,22.38
2023-02-16T08:56:37.353Z,21.88
2023-02-16T08:59:04.470Z,23.95
2023-02-16T09:01:31.428Z,26.02
2023-02-16T09:03:58.933Z,24.25
2023-02-16T09:06:25.662Z,23.23
2023-02-16T09:08:57.651Z,22.67
2023-02-16T09:11:32.233Z,22.05
2023-02-16T09:13:59.220Z,22.45
2023-02-16T09:16:31.546Z,21.73
2023-02-16T09:19:02.575Z,21.60
2023-02-16T09:21:33.145Z,21.27
2023-02-16T09:24:04.722Z,21.55
2023-02-16T09:26:38.254Z,23.35
2023-02-16T09:29:06.279Z,23.00
2023-02-16T09:31:35.570Z,22.67
2023-02-16T09:34:07.289Z,21.92
2023-02-16T09:36:34.121Z,21.65
2023-02-16T09:39:02.217Z,21.42
2023-02-16T09:41:40.420Z,23.33
2023-02-16T09:44:19.084Z,21.55
2023-02-16T09:46:54.270Z,22.52
2023-02-16T09:49:30.620Z,24.00
2023-02-16T09:52:11.687Z,24.02
2023-02-16T09:54:47.623Z,24.00
2023-02-16T09:57:38.615Z,22.63
2023-02-16T10:00:43.576Z,21.77
2023-02-16T10:03:48.073Z,23.48
2023-02-16T10:06:57.273Z,22.27
2023-02-16T10:09:27.177Z,21.73
2023-02-16T10:12:11.108Z,23.10
2023-02-16T10:14:47.093Z,21.77
2023-02-16T10:17:33.721Z,22.52
2023-02-16T10:20:16.874Z,22.30
2023-02-16T10:23:01.109Z,21.10
2023-02-16T10:25:44.052Z,20.92
2023-02-16T10:28:28.005Z,19.98
2023-02-16T10:31:13.418Z,19.00
2023-02-16T10:33:44.065Z,18.95
2023-02-16T10:36:29.587Z,19.42
2023-02-16T10:39:22.626Z,18.75
2023-02-16T10:42:12.850Z,19.17
2023-02-16T10:44:54.068Z,18.60
2023-02-16T10:47:33.460Z,18.67
2023-02-16T10:50:00.686Z,19.27
2023-02-16T10:52:33.810Z,19.30
2023-02-16T10:55:00.546Z,18.58
2023-02-16T10:57:30.873Z,18.83
2023-02-16T11:00:01.887Z,17.63
2023-02-16T11:02:35.309Z,16.92
2023-02-16T11:05:01.882Z,17.45
2023-02-16T11:07:31.484Z,18.30
2023-02-16T11:10:02.889Z,18.02
2023-02-16T11:12:32.482Z,18.42
2023-02-16T11:15:04.517Z,18.88
2023-02-16T11:17:47.365Z,19.35
2023-02-16T11:20:51.480Z,19.02
2023-02-16T11:23:28.325Z,17.42
2023-02-16T11:26:11.699Z,18.70
2023-02-16T11:28:39.350Z,18.10
2023-02-16T11:31:14.206Z,19.43
2023-02-16T11:33:43.204Z,19.35
2023-02-16T11:36:33.231Z,19.00
2023-02-16T11:39:09.760Z,19.13
2023-02-16T11:41:37.803Z,19.67
2023-02-16T11:44:04.574Z,20.65
2023-02-16T11:46:40.824Z,18.90
2023-02-16T11:49:29.443Z,19.98
2023-02-16T11:51:56.043Z,18.85
2023-02-16T11:54:22.830Z,21.33
2023-02-16T11:57:06.669Z,19.08
2023-02-16T11:59:37.329Z,19.85
2023-02-16T12:02:58.604Z,20.13
2023-02-16T12:05:38.933Z,21.30
2023-02-16T12:08:11.028Z,20.45
2023-02-16T12:11:08.512Z,19.38
2023-02-16T12:14:14.216Z,20.25
2023-02-16T12:17:27.768Z,20.42
2023-02-16T12:19:58.716Z,20.33
2023-02-16T12:22:48.046Z,21.15
2023-02-16T12:25:27.091Z,21.95
2023-02-16T12:28:14.811Z,21.55
2023-02-16T12:30:56.320Z,22.98
2023-02-16T12:33:48.144Z,21.55
2023-02-16T12:36:32.948Z,22.65
2023-02-16T12:39:12.643Z,22.10
2023-02-16T12:42:03.053Z,23.63
2023-02-16T12:44:53.780Z,23.20
2023-02-16T12:47:34.880Z,23.65
2023-02-16T12:50:14.810Z,24.63
2023-02-16T12:52:46.392Z,23.92
2023-02-16T12:55:27.699Z,22.52
2023-02-16T12:58:01.670Z,23.38
2023-02-16T13:00:47.732Z,23.50
2023-02-16T13:03:35.283Z,23.05
2023-02-16T13:06:13.359Z,23.25
2023-02-16T13:08:44.874Z,24.33
2023-02-16T13:11:21.304Z,22.13
2023-02-16T13:13:52.019Z,22.02
2023-02-16T13:16:30.360Z,23.30
2023-02-16T13:18:57.930Z,23.33
2023-02-16T13:21:51.293Z,22.15
2023-02-16T13:24:36.571Z,22.45
2023-02-16T13:27:28.071Z,23.05
2023-02-16T13:30:17.474Z,20.95
2023-02-16T13:33:01.069Z,23.40
2023-02-16T13:35:49.136Z,22.42
2023-02-16T13:38:46.470Z,21.35
2023-02-16T13:41:31.789Z,22.47
2023-02-16T13:44:05.684Z,21.17
2023-02-16T13:46:37.283Z,22.60
2023-02-16T13:49:04.470Z,22.55
2023-02-16T13:51:43.344Z,22.58
2023-02-16T13:54:30.264Z,23.10
2023-02-16T13:56:56.899Z,22.52
2023-02-16T13:59:24.987Z,23.20
2023-02-16T14:01:56.791Z,23.10
2023-02-16T14:04:23.176Z,21.55
2023-02-16T14:06:52.152Z,22.70
2023-02-16T14:09:19.309Z,24.05
2023-02-16T14:11:54.655Z,23.90
2023-02-16T14:14:34.014Z,22.33
2023-02-16T14:17:19.625Z,23.35
2023-02-16T14:19:51.931Z,22.65
2023-02-16T14:22:40.874Z,24.30
2023-02-16T14:25:22.342Z,25.30
2023-02-16T14:27:56.688Z,35.13
2023-02-16T14:30:45.869Z,28.65
2023-02-16T14:33:15.830Z,54.30
2023-02-16T14:36:00.347Z,35.58
2023-02-16T14:38:43.020Z,37.83
2023-02-16T14:41:24.240Z,30.48
2023-02-16T14:43:55.494Z,30.55
2023-02-16T14:46:59.138Z,27.27
2023-02-16T14:49:55.316Z,25.48
2023-02-16T14:53:00.602Z,26.23
2023-02-16T14:55:57.236Z,23.75
2023-02-16T14:58:41.613Z,25.92
2023-02-16T15:01:16.774Z,23.65
2023-02-16T15:03:50.111Z,25.05
2023-02-16T15:06:40.029Z,25.08
2023-02-16T15:09:15.823Z,24.25
2023-02-16T15:12:09.295Z,24.52
2023-02-16T15:14:42.880Z,26.45
2023-02-16T15:17:10.900Z,33.47
2023-02-16T15:19:37.586Z,26.38
2023-02-16T15:22:18.911Z,27.45
2023-02-16T15:24:58.529Z,26.20
2023-02-16T15:27:25.965Z,24.52
2023-02-16T15:30:24.431Z,25.17
2023-02-16T15:33:02.607Z,25.25
2023-02-16T15:35:41.452Z,24.15
2023-02-16T15:38:20.377Z,24.98
2023-02-16T15:40:48.349Z,25.05
2023-02-16T15:43:37.567Z,26.27
2023-02-16T15:46:15.130Z,27.58
2023-02-16T15:48:41.533Z,26.87
2023-02-16T15:51:28.976Z,25.20
2023-02-16T15:53:59.344Z,24.10
2023-02-16T15:56:47.240Z,25.23
2023-02-16T15:59:38.561Z,25.58
2023-02-16T16:02:24.600Z,25.27
2023-02-16T16:04:55.605Z,27.35
2023-02-16T16:07:35.761Z,25.80
2023-02-16T16:10:08.422Z,28.25
2023-02-16T16:12:36.214Z,26.70
2023-02-16T16:15:04.387Z,25.75
2023-02-16T16:17:33.756Z,26.42
2023-02-16T16:20:27.377Z,24.42
2023-02-16T16:23:20.378Z,26.77
2023-02-16T16:25:48.632Z,26.55
2023-02-16T16:28:36.778Z,24.52
2023-02-16T16:31:12.664Z,25.40
2023-02-16T16:33:59.365Z,24.02
2023-02-16T16:36:32.830Z,23.52
2023-02-16T16:39:19.780Z,22.95
2023-02-16T16:42:06.856Z,23.98
2023-02-16T16:44:40.920Z,23.77
2023-02-16T16:47:26.971Z,21.83
2023-02-16T16:49:58.261Z,23.27
2023-02-16T16:52:48.307Z,25.63
2023-02-16T16:55:24.373Z,23.83
2023-02-16T16:57:54.124Z,24.17
2023-02-16T17:00:22.156Z,24.65
2023-02-16T17:02:49.065Z,23.88
2023-02-16T17:05:20.880Z,22.95
2023-02-16T17:07:49.862Z,25.25
2023-02-16T17:10:17.920Z,23.20
2023-02-16T17:12:50.857Z,24.20
2023-02-16T17:15:37.616Z,22.38
2023-02-16T17:18:05.757Z,22.15
2023-02-16T17:20:32.238Z,20.75
2023-02-16T17:23:04.380Z,22.50
2023-02-16T17:25:33.478Z,21.20
2023-02-16T17:27:59.920Z,22.40
2023-02-16T17:30:26.731Z,23.02
2023-02-16T17:32:54.926Z,21.90
2023-02-16T17:35:21.797Z,23.52
2023-02-16T17:37:49.651Z,22.92
2023-02-16T17:40:21.308Z,21.20
2023-02-16T17:42:50.043Z,22.50
2023-02-16T17:45:18.486Z,21.58
2023-02-16T17:47:46.818Z,20.20
2023-02-16T17:50:15.495Z,20.42
2023-02-16T17:52:43.247Z,19.23
2023-02-16T17:55:10.664Z,20.90
2023-02-16T17:57:38.844Z,18.30
2023-02-16T18:00:13.503Z,19.17
2023-02-16T18:02:40.856Z,19.63
2023-02-16T18:05:07.757Z,18.85
2023-02-16T18:07:34.237Z,17.90
2023-02-16T18:10:00.745Z,17.30
2023-02-16T18:12:28.500Z,17.38
2023-02-16T18:14:55.028Z,17.70
2023-02-16T18:17:21.402Z,18.25
2023-02-16T18:19:48.936Z,18.73
2023-02-16T18:22:16.584Z,18.42
2023-02-16T18:24:44.326Z,18.97
2023-02-16T18:27:10.683Z,18.98
2023-02-16T18:29:37.151Z,18.83
2023-02-16T18:32:04.311Z,18.63
2023-02-16T18:34:32.419Z,16.40
2023-02-16T18:36:58.784Z,17.23
2023-02-16T18:39:25.163Z,16.98
2023-02-16T18:41:51.506Z,16.52
2023-02-16T18:44:17.828Z,15.55
2023-02-16T18:46:44.212Z,13.63
2023-02-16T18:49:10.604Z,12.88
2023-02-16T18:51:36.990Z,13.43
2023-02-16T18:54:04.938Z,14.35
2023-02-16T18:56:31.403Z,12.77
2023-02-16T18:58:57.986Z,12.65
2023-02-16T19:01:30.263Z,11.80
2023-02-16T19:03:57.192Z,12.93
2023-02-16T19:06:23.666Z,12.65
2023-02-16T19:08:51.345Z,20.60
2023-02-16T19:11:22.102Z,14.05
2023-02-16T19:13:49.262Z,13.45
2023-02-16T19:16:19.102Z,13.38
2023-02-16T19:18:45.708Z,13.18
2023-02-16T19:21:14.086Z,13.23
2023-02-16T19:23:40.990Z,13.10
2023-02-16T19:26:13.426Z,12.82
2023-02-16T19:28:40.694Z,11.77
2023-02-16T19:31:14.854Z,12.13
2023-02-16T19:33:41.444Z,11.70
2023-02-16T19:36:10.169Z,11.93
2023-02-16T19:38:37.400Z,10.93
2023-02-16T19:41:19.211Z,12.48
2023-02-16T19:43:46.357Z,12.27
2023-02-16T19:46:13.305Z,11.23
2023-02-16T19:48:40.102Z,11.95
2023-02-16T19:51:08.295Z,11.05
2023-02-16T19:53:36.706Z,11.55
2023-02-16T19:56:08.435Z,11.48
2023-02-16T19:58:35.337Z,11.52
2023-02-16T20:01:13.821Z,12.43
2023-02-16T20:06:14.431Z,13.10
2023-02-16T20:08:40.740Z,11.88
2023-02-16T20:11:08.295Z,12.93
2023-02-16T20:13:38.026Z,12.93
2023-02-16T20:16:07.871Z,13.23
2023-02-16T20:18:36.426Z,13.95
2023-02-16T20:21:09.330Z,13.80
2023-02-16T20:23:36.354Z,15.10
2023-02-16T20:26:08.922Z,15.93
2023-02-16T20:28:36.077Z,16.33
2023-02-16T20:31:04.237Z,17.27
2023-02-16T20:33:30.711Z,16.10
2023-02-16T20:35:57.092Z,16.02
2023-02-16T20:38:24.718Z,17.27
2023-02-16T20:40:51.576Z,17.67
2023-02-16T20:43:20.830Z,19.35
2023-02-16T20:45:47.796Z,17.02
2023-02-16T20:48:15.652Z,18.20
2023-02-16T20:50:42.385Z,19.77
2023-02-16T20:53:08.885Z,18.88
2023-02-16T20:55:35.662Z,18.40
2023-02-16T20:58:02.397Z,18.15
2023-02-16T21:00:29.702Z,17.63
2023-02-16T21:02:56.053Z,19.77
2023-02-16T21:05:23.260Z,18.75
2023-02-16T21:07:50.109Z,17.75
2023-02-16T21:10:18.966Z,17.88
2023-02-16T21:12:46.430Z,16.98
2023-02-16T21:15:14.102Z,16.77
2023-02-16T21:17:40.437Z,26.67
2023-02-16T21:20:07.845Z,20.63
2023-02-16T21:22:35.546Z,18.42
2023-02-16T21:25:02.044Z,18.67
2023-02-16T21:27:28.393Z,17.33
2023-02-16T21:29:54.978Z,17.33
2023-02-16T21:32:21.409Z,17.55
2023-02-16T21:34:47.800Z,17.30
2023-02-16T21:37:14.611Z,17.70
2023-02-16T21:40:00.270Z,17.23
2023-02-16T21:42:27.224Z,16.55
2023-02-16T21:45:12.490Z,17.02
2023-02-16T21:47:59.077Z,18.77
2023-02-16T21:50:26.521Z,18.05
2023-02-16T21:52:53.379Z,19.20
2023-02-16T21:55:39.224Z,17.92
2023-02-16T21:58:10.972Z,18.33
2023-02-16T22:00:41.609Z,18.85
2023-02-16T22:03:09.330Z,18.48
2023-02-16T22:05:36.597Z,18.77
2023-02-16T22:08:03.234Z,17.92
2023-02-16T22:10:30.715Z,18.63
2023-02-16T22:12:57.836Z,19.48
2023-02-16T22:15:25.939Z,18.50
2023-02-16T22:17:52.668Z,19.30
2023-02-16T22:20:19.493Z,17.33
2023-02-16T22:22:46.107Z,18.45
2023-02-16T22:25:13.367Z,17.70
2023-02-16T22:27:40.263Z,17.25
2023-02-16T22:30:10.333Z,17.17
2023-02-16T22:32:36.999Z,16.30
2023-02-16T22:35:03.894Z,16.08
2023-02-16T22:37:32.483Z,15.65
2023-02-16T22:42:29.270Z,14.68
2023-02-16T22:44:57.054Z,14.35
2023-02-16T22:47:25.855Z,14.38
2023-02-16T22:49:52.171Z,14.23
2023-02-16T22:52:18.742Z,14.65
2023-02-16T22:54:45.357Z,14.20
2023-02-16T22:57:11.758Z,15.13
2023-02-16T22:59:38.654Z,14.55
2023-02-16T23:02:04.983Z,14.73
2023-02-16T23:04:31.602Z,15.30
2023-02-16T23:06:57.945Z,15.95
2023-02-16T23:09:24.545Z,15.32
2023-02-16T23:11:51.163Z,14.98
2023-02-16T23:14:19.173Z,14.70
2023-02-16T23:16:47.419Z,15.68
2023-02-16T23:19:16.901Z,15.90
2023-02-16T23:21:43.860Z,15.15
2023-02-16T23:24:13.904Z,16.00
2023-02-16T23:26:41.331Z,16.73
2023-02-16T23:29:08.340Z,16.85
2023-02-16T23:31:36.417Z,16.92
2023-02-16T23:34:04.853Z,16.65
2023-02-16T23:36:32.415Z,17.10
2023-02-16T23:39:14.192Z,16.63
2023-02-16T23:41:41.520Z,18.10
2023-02-16T23:44:09.540Z,15.93
2023-02-16T23:46:36.069Z,18.67
2023-02-16T23:49:02.428Z,18.02
2023-02-16T23:51:28.822Z,19.10
2023-02-16T23:53:55.905Z,18.80
2023-02-16T23:56:25.160Z,18.65
2023-02-16T23:58:52.767Z,18.70
